Hankins, New York
Current Conditions -  °F | °C
As of 3:15 AM on Saturday 25 Oct 2014 (Local Time) from KMSV Reporting Station
Clear Clear  
Wind Chill: 36°   Ceiling: Unl
Heat Index: 41°   Visibility: 10mi
Dew Point: 36°   Wind: 7mph
Humidity: 81%   Direction: 260°W
Pressure: 29.89"   Gusts: NA
Location:  41.81°N, 75.09°W
Report Text: KMSV 250715Z AUTO 26006KT 10SM CLR 05/02 A2989 RMK AO1
Loading
Personal Weather Stations






























Interactive Weather Map New forecast layout! Learn more

10-Day Weather Forecast

Advertisements
Track Severe Weather on mobile